Time;durP1;ratioP1;P1;durP2;ratioP2;P2;SDS_P1;SDS_P2;PMS_P1;PMS_P2;Temp;Humidity;BMP_temperature;BMP_pressure;BME280_temperature;BME280_humidity;BME280_pressure;Samples;Min_cycle;Max_cycle;Signal;HPM_P1;HPM_P2
2023/05/01 00:00:19;;;;;;;0.50;0.50;;;;;;;;;;5057521;28;20207;-59
2023/05/01 00:02:46;;;;;;;1.27;0.87;;;;;;;;;;5069062;28;20226;-59
2023/05/01 00:05:13;;;;;;;1.90;0.60;;;;;;;;;;5052281;28;20211;-60
2023/05/01 00:07:40;;;;;;;0.60;0.60;;;;;;;;;;5051291;28;20204;-59
2023/05/01 00:10:09;;;;;;;0.67;0.67;;;;;;;;;;5056558;28;20245;-60
2023/05/01 00:12:36;;;;;;;0.97;0.97;;;;;;;;;;5068130;28;20211;-59
2023/05/01 00:15:03;;;;;;;0.93;0.63;;;;;;;;;;5061705;28;20689;-59
2023/05/01 00:17:30;;;;;;;1.07;1.00;;;;;;;;;;5065077;28;20374;-59
2023/05/01 00:19:58;;;;;;;1.43;0.70;;;;;;;;;;5047897;28;20699;-59
2023/05/01 00:22:25;;;;;;;1.00;1.00;;;;;;;;;;5048533;28;20240;-59
2023/05/01 00:24:52;;;;;;;0.90;0.90;;;;;;;;;;5048736;28;20287;-60
2023/05/01 00:27:21;;;;;;;0.50;0.50;;;;;;;;;;5048713;28;20207;-60
2023/05/01 00:29:48;;;;;;;2.20;0.70;;;;;;;;;;5047883;28;20224;-60
2023/05/01 00:32:15;;;;;;;1.50;0.87;;;;;;;;;;5048415;28;20204;-59
2023/05/01 00:34:42;;;;;;;1.63;1.07;;;;;;;;;;5048189;28;20582;-60
2023/05/01 00:37:09;;;;;;;0.80;0.80;;;;;;;;;;5048727;28;20720;-60
2023/05/01 00:39:36;;;;;;;0.77;0.77;;;;;;;;;;5049416;28;20265;-59
2023/05/01 00:42:03;;;;;;;5.17;0.70;;;;;;;;;;5064117;28;20231;-59
2023/05/01 00:44:32;;;;;;;0.80;0.80;;;;;;;;;;5061311;28;20207;-60
2023/05/01 00:47:01;;;;;;;0.87;0.87;;;;;;;;;;5056486;28;20216;-60
2023/05/01 00:49:28;;;;;;;1.00;1.00;;;;;;;;;;5052455;28;20246;-60
2023/05/01 00:51:57;;;;;;;0.67;0.67;;;;;;;;;;5067721;28;20593;-60
2023/05/01 00:54:26;;;;;;;0.93;0.93;;;;;;;;;;5054527;28;20204;-59
2023/05/01 00:56:53;;;;;;;0.80;0.80;;;;;;;;;;5048436;28;20207;-60
2023/05/01 00:59:21;;;;;;;1.50;1.03;;;;;;;;;;5055498;28;20207;-60
2023/05/01 01:01:49;;;;;;;0.90;0.90;;;;;;;;;;5065919;28;20211;-60
2023/05/01 01:04:16;;;;;;;0.80;0.80;;;;;;;;;;5058956;28;20237;-59
2023/05/01 01:06:50;;;;;;;0.60;0.60;;;;;;;;;;5059103;28;20214;-60
2023/05/01 01:09:20;;;;;;;0.80;0.80;;;;;;;;;;5057295;28;20195;-59
2023/05/01 01:11:53;;;;;;;2.40;1.07;;;;;;;;;;5061045;28;20207;-59
2023/05/01 01:14:24;;;;;;;0.67;0.67;;;;;;;;;;5059214;28;20237;-60
2023/05/01 01:16:55;;;;;;;0.90;0.90;;;;;;;;;;5067981;28;20199;-60
2023/05/01 01:19:33;;;;;;;0.93;0.93;;;;;;;;;;5056314;28;20196;-60
2023/05/01 01:22:03;;;;;;;1.00;1.00;;;;;;;;;;5062638;28;20202;-60
2023/05/01 01:24:46;;;;;;;1.20;1.10;;;;;;;;;;5056234;28;20211;-60
2023/05/01 01:27:20;;;;;;;1.13;1.13;;;;;;;;;;5047961;28;20204;-60
2023/05/01 01:29:57;;;;;;;0.70;0.70;;;;;;;;;;5053908;28;20945;-60
2023/05/01 01:32:42;;;;;;;0.90;0.90;;;;;;;;;;5050711;28;20206;-60
2023/05/01 01:35:13;;;;;;;0.90;0.90;;;;;;;;;;5056686;28;20211;-60
2023/05/01 01:37:43;;;;;;;0.87;0.87;;;;;;;;;;5052397;28;20211;-60
2023/05/01 01:40:12;;;;;;;0.80;0.80;;;;;;;;;;5063332;28;20226;-60
2023/05/01 01:42:41;;;;;;;1.47;1.23;;;;;;;;;;5063521;28;20231;-60
2023/05/01 01:45:12;;;;;;;0.70;0.70;;;;;;;;;;5049417;28;20200;-59
2023/05/01 01:47:41;;;;;;;0.83;0.83;;;;;;;;;;5058079;28;20662;-60
2023/05/01 01:50:10;;;;;;;0.77;0.77;;;;;;;;;;5052655;28;20227;-60
2023/05/01 01:52:41;;;;;;;0.70;0.70;;;;;;;;;;5054161;28;20211;-59
2023/05/01 01:55:10;;;;;;;1.07;1.07;;;;;;;;;;5047697;28;20203;-59
2023/05/01 01:57:38;;;;;;;1.83;0.97;;;;;;;;;;5047586;28;20253;-59
2023/05/01 02:00:07;;;;;;;0.87;0.87;;;;;;;;;;5047391;28;20795;-59
2023/05/01 02:02:36;;;;;;;3.13;0.90;;;;;;;;;;5047107;28;20200;-59
2023/05/01 02:05:03;;;;;;;0.80;0.80;;;;;;;;;;5047499;28;20385;-59
2023/05/01 02:07:31;;;;;;;0.80;0.80;;;;;;;;;;5047556;28;20214;-59
2023/05/01 02:10:02;;;;;;;0.60;0.60;;;;;;;;;;5053766;28;20605;-59
2023/05/01 02:12:30;;;;;;;2.30;0.93;;;;;;;;;;5057594;28;20215;-59
2023/05/01 02:14:59;;;;;;;2.30;1.00;;;;;;;;;;5047533;28;20210;-59
2023/05/01 02:17:26;;;;;;;1.70;1.40;;;;;;;;;;5057232;28;20203;-59
2023/05/01 02:19:54;;;;;;;1.27;0.90;;;;;;;;;;5051872;28;20317;-59
2023/05/01 02:22:22;;;;;;;0.83;0.83;;;;;;;;;;5060513;28;20228;-59
2023/05/01 02:24:49;;;;;;;0.80;0.80;;;;;;;;;;5052917;28;20887;-59
2023/05/01 02:27:20;;;;;;;1.43;1.10;;;;;;;;;;5050594;28;20199;-59
2023/05/01 02:29:47;;;;;;;0.83;0.83;;;;;;;;;;5066459;28;20203;-59
2023/05/01 02:32:14;;;;;;;0.70;0.70;;;;;;;;;;5060174;28;20279;-59
2023/05/01 02:34:42;;;;;;;1.27;1.20;;;;;;;;;;5049606;28;20204;-59
2023/05/01 02:37:11;;;;;;;1.27;1.17;;;;;;;;;;5058524;28;20306;-59
2023/05/01 02:39:38;;;;;;;1.57;1.07;;;;;;;;;;5049823;28;20200;-59
2023/05/01 02:42:06;;;;;;;1.90;1.00;;;;;;;;;;5059722;28;20226;-60
2023/05/01 02:44:40;;;;;;;1.70;0.97;;;;;;;;;;5064737;28;20675;-59
2023/05/01 02:47:08;;;;;;;1.20;1.20;;;;;;;;;;5055500;28;20200;-59
2023/05/01 02:49:35;;;;;;;0.90;0.90;;;;;;;;;;5054552;28;20213;-59
2023/05/01 02:52:03;;;;;;;1.63;0.80;;;;;;;;;;5046682;28;20235;-59
2023/05/01 02:54:31;;;;;;;1.00;1.00;;;;;;;;;;5054639;28;20217;-59
2023/05/01 02:56:58;;;;;;;1.30;1.20;;;;;;;;;;5066245;28;20210;-59
2023/05/01 02:59:25;;;;;;;3.50;1.13;;;;;;;;;;5052954;28;20658;-59
2023/05/01 03:01:54;;;;;;;1.27;1.17;;;;;;;;;;5060814;28;20218;-59
2023/05/01 03:04:21;;;;;;;1.70;1.63;;;;;;;;;;5066450;28;20326;-59
2023/05/01 03:06:48;;;;;;;1.47;1.17;;;;;;;;;;5060836;28;20203;-59
2023/05/01 03:09:16;;;;;;;1.30;1.23;;;;;;;;;;5066674;28;20206;-59
2023/05/01 03:11:43;;;;;;;3.47;1.40;;;;;;;;;;5054488;28;20297;-59
2023/05/01 03:14:10;;;;;;;0.90;0.90;;;;;;;;;;5060092;28;20203;-59
2023/05/01 03:16:38;;;;;;;0.90;0.90;;;;;;;;;;5056487;28;20291;-59
2023/05/01 03:19:06;;;;;;;1.13;1.13;;;;;;;;;;5059481;28;20219;-59
2023/05/01 03:21:33;;;;;;;1.70;1.13;;;;;;;;;;5062604;28;20209;-59
2023/05/01 03:24:00;;;;;;;0.90;0.90;;;;;;;;;;5064347;28;20504;-59
2023/05/01 03:26:27;;;;;;;5.23;1.40;;;;;;;;;;5063019;28;20233;-59
2023/05/01 03:28:54;;;;;;;0.80;0.80;;;;;;;;;;5055520;28;20203;-59
2023/05/01 03:31:22;;;;;;;0.97;0.97;;;;;;;;;;5049178;28;20729;-59
2023/05/01 03:33:49;;;;;;;1.47;1.37;;;;;;;;;;5046290;28;20227;-59
2023/05/01 03:36:17;;;;;;;2.53;1.30;;;;;;;;;;5047349;28;21287;-58
2023/05/01 03:38:46;;;;;;;4.47;1.40;;;;;;;;;;5046308;28;20199;-59
2023/05/01 03:41:13;;;;;;;1.73;1.13;;;;;;;;;;5054847;28;20210;-59
2023/05/01 03:43:40;;;;;;;0.93;0.80;;;;;;;;;;5063110;28;20206;-59
2023/05/01 03:46:07;;;;;;;1.00;1.00;;;;;;;;;;5058840;28;20206;-59
2023/05/01 03:48:34;;;;;;;2.47;1.10;;;;;;;;;;5051979;28;20196;-59
2023/05/01 03:51:02;;;;;;;1.17;1.17;;;;;;;;;;5065816;28;20272;-59
2023/05/01 03:53:31;;;;;;;1.60;1.50;;;;;;;;;;5067511;28;20261;-59
2023/05/01 03:55:58;;;;;;;1.67;1.57;;;;;;;;;;5067999;28;20203;-59
2023/05/01 03:58:25;;;;;;;0.80;0.80;;;;;;;;;;5052984;28;20207;-59
2023/05/01 04:00:52;;;;;;;4.10;1.47;;;;;;;;;;5050123;28;20287;-59
2023/05/01 04:03:19;;;;;;;1.30;1.20;;;;;;;;;;5066273;28;20206;-59
2023/05/01 04:05:46;;;;;;;1.63;1.53;;;;;;;;;;5065216;28;20208;-59
2023/05/01 04:08:13;;;;;;;1.10;1.10;;;;;;;;;;5056898;28;20203;-59
2023/05/01 04:10:42;;;;;;;2.07;1.00;;;;;;;;;;5060181;28;20235;-59
2023/05/01 04:13:09;;;;;;;1.50;1.37;;;;;;;;;;5050026;28;20639;-59
2023/05/01 04:15:37;;;;;;;2.30;1.20;;;;;;;;;;5049719;28;20207;-59
2023/05/01 04:18:04;;;;;;;0.80;0.80;;;;;;;;;;5050152;28;20202;-59
2023/05/01 04:20:31;;;;;;;1.47;1.37;;;;;;;;;;5050198;28;20207;-59
2023/05/01 04:22:58;;;;;;;2.10;1.47;;;;;;;;;;5051411;28;20302;-59
2023/05/01 04:25:26;;;;;;;1.40;1.30;;;;;;;;;;5050543;28;20215;-60
2023/05/01 04:27:54;;;;;;;1.20;1.20;;;;;;;;;;5058108;28;20211;-59
2023/05/01 04:30:21;;;;;;;5.50;1.07;;;;;;;;;;5067248;28;20203;-59
2023/05/01 04:32:48;;;;;;;1.57;1.43;;;;;;;;;;5067698;28;20200;-59
2023/05/01 04:35:15;;;;;;;1.90;1.50;;;;;;;;;;5056246;28;20215;-59
2023/05/01 04:37:42;;;;;;;1.30;1.20;;;;;;;;;;5056777;28;20439;-60
2023/05/01 04:40:10;;;;;;;1.30;1.20;;;;;;;;;;5053720;28;20208;-59
2023/05/01 04:42:37;;;;;;;1.00;1.00;;;;;;;;;;5066283;28;20234;-59
2023/05/01 04:45:06;;;;;;;1.23;1.23;;;;;;;;;;5068573;28;20203;-59
2023/05/01 04:47:33;;;;;;;2.10;1.13;;;;;;;;;;5049118;28;20589;-59
2023/05/01 04:50:00;;;;;;;1.67;1.57;;;;;;;;;;5048366;28;20265;-59
2023/05/01 04:52:34;;;;;;;1.30;1.20;;;;;;;;;;5048148;28;20618;-59
2023/05/01 04:55:02;;;;;;;2.13;1.50;;;;;;;;;;5048303;28;20208;-59
2023/05/01 04:57:29;;;;;;;4.20;1.70;;;;;;;;;;5048589;28;20302;-59
2023/05/01 04:59:56;;;;;;;0.80;0.80;;;;;;;;;;5051717;28;20203;-59
2023/05/01 05:02:25;;;;;;;3.43;1.20;;;;;;;;;;5059541;28;20285;-59
2023/05/01 05:04:53;;;;;;;2.40;1.73;;;;;;;;;;5051558;28;20196;-59
2023/05/01 05:07:20;;;;;;;2.10;1.30;;;;;;;;;;5062806;28;20277;-59
2023/05/01 05:09:47;;;;;;;1.67;1.57;;;;;;;;;;5050643;28;20234;-59
2023/05/01 05:12:14;;;;;;;2.93;1.27;;;;;;;;;;5055415;28;20231;-59
2023/05/01 05:14:41;;;;;;;1.60;1.50;;;;;;;;;;5058333;28;20628;-59
2023/05/01 05:17:08;;;;;;;3.80;1.37;;;;;;;;;;5051674;28;20207;-59
2023/05/01 05:19:37;;;;;;;2.00;1.30;;;;;;;;;;5049478;28;20212;-59
2023/05/01 05:22:04;;;;;;;1.73;1.20;;;;;;;;;;5050079;28;20204;-59
2023/05/01 05:24:31;;;;;;;1.10;1.00;;;;;;;;;;5050573;28;20226;-59
2023/05/01 05:26:58;;;;;;;1.63;1.33;;;;;;;;;;5060286;28;20632;-59
2023/05/01 05:29:26;;;;;;;0.93;0.93;;;;;;;;;;5054380;28;20215;-59
2023/05/01 05:31:53;;;;;;;3.07;1.63;;;;;;;;;;5055844;28;20228;-59
2023/05/01 05:34:20;;;;;;;2.10;1.90;;;;;;;;;;5049087;28;20214;-59
2023/05/01 05:36:48;;;;;;;1.60;1.50;;;;;;;;;;5048306;28;20310;-59
2023/05/01 05:39:15;;;;;;;1.43;1.43;;;;;;;;;;5048159;28;20218;-59
2023/05/01 05:41:42;;;;;;;1.70;1.60;;;;;;;;;;5051875;28;20693;-59
2023/05/01 05:44:10;;;;;;;1.43;1.43;;;;;;;;;;5049610;28;20196;-59
2023/05/01 05:46:37;;;;;;;1.37;1.03;;;;;;;;;;5056213;28;20222;-59
2023/05/01 05:49:04;;;;;;;1.13;1.13;;;;;;;;;;5062232;28;20249;-60
2023/05/01 05:51:31;;;;;;;2.23;1.20;;;;;;;;;;5054654;28;20382;-60
2023/05/01 05:53:59;;;;;;;1.30;1.30;;;;;;;;;;5050384;28;20196;-58
2023/05/01 05:56:26;;;;;;;2.13;1.50;;;;;;;;;;5048916;28;20200;-58
2023/05/01 05:58:53;;;;;;;1.67;1.47;;;;;;;;;;5062171;28;20218;-59
2023/05/01 06:01:21;;;;;;;3.23;1.30;;;;;;;;;;5060549;28;20306;-59
2023/05/01 06:03:48;;;;;;;3.13;1.80;;;;;;;;;;5063102;28;20214;-58
2023/05/01 06:06:15;;;;;;;1.47;1.47;;;;;;;;;;5066431;28;20665;-59
2023/05/01 06:08:44;;;;;;;2.20;1.77;;;;;;;;;;5048647;28;20566;-58
2023/05/01 06:11:12;;;;;;;1.50;1.40;;;;;;;;;;5060335;28;20227;-58
2023/05/01 06:13:39;;;;;;;2.13;1.43;;;;;;;;;;5047908;28;20226;-58
2023/05/01 06:16:07;;;;;;;1.77;1.67;;;;;;;;;;5052424;28;20203;-59
2023/05/01 06:18:34;;;;;;;3.03;1.60;;;;;;;;;;5066375;28;20206;-59
2023/05/01 06:21:01;;;;;;;1.90;1.57;;;;;;;;;;5052726;28;20199;-59
2023/05/01 06:23:28;;;;;;;1.83;1.70;;;;;;;;;;5047425;28;20231;-59
2023/05/01 06:25:55;;;;;;;1.73;1.63;;;;;;;;;;5049598;28;20207;-59
2023/05/01 06:28:23;;;;;;;1.83;1.73;;;;;;;;;;5065691;28;20203;-59
2023/05/01 06:30:50;;;;;;;2.80;2.07;;;;;;;;;;5064384;28;20207;-59
2023/05/01 06:33:17;;;;;;;2.87;1.60;;;;;;;;;;5048669;28;20638;-59
2023/05/01 06:35:45;;;;;;;1.60;1.53;;;;;;;;;;5061282;28;20214;-59
2023/05/01 06:38:12;;;;;;;4.83;1.70;;;;;;;;;;5064170;28;20550;-59
2023/05/01 06:40:40;;;;;;;3.07;1.70;;;;;;;;;;5062307;28;20210;-59
2023/05/01 06:43:07;;;;;;;5.83;1.60;;;;;;;;;;5059233;28;20281;-59
2023/05/01 06:45:38;;;;;;;1.73;1.70;;;;;;;;;;5045951;28;20218;-59
2023/05/01 06:48:05;;;;;;;1.73;1.63;;;;;;;;;;5058566;28;20217;-59
2023/05/01 06:50:32;;;;;;;1.00;1.00;;;;;;;;;;5057945;28;20207;-60
2023/05/01 06:53:01;;;;;;;2.07;1.97;;;;;;;;;;5059393;28;20598;-60
2023/05/01 06:55:30;;;;;;;1.90;1.70;;;;;;;;;;5053416;28;20202;-59
2023/05/01 06:57:57;;;;;;;1.93;1.83;;;;;;;;;;5066784;28;20211;-59
2023/05/01 07:00:24;;;;;;;3.77;1.97;;;;;;;;;;5059307;28;20219;-59
2023/05/01 07:02:52;;;;;;;2.13;1.80;;;;;;;;;;5055545;28;20241;-60
2023/05/01 07:05:19;;;;;;;2.43;2.00;;;;;;;;;;5057084;28;20204;-60
2023/05/01 07:07:46;;;;;;;2.27;1.90;;;;;;;;;;5067086;28;20211;-60
2023/05/01 07:10:13;;;;;;;1.77;1.67;;;;;;;;;;5055217;28;20215;-60
2023/05/01 07:12:40;;;;;;;1.50;1.40;;;;;;;;;;5048631;28;20227;-60
2023/05/01 07:15:08;;;;;;;1.83;1.73;;;;;;;;;;5065874;28;20677;-60
2023/05/01 07:17:36;;;;;;;2.07;1.83;;;;;;;;;;5066776;28;20211;-60
2023/05/01 07:20:05;;;;;;;2.23;2.00;;;;;;;;;;5055210;28;20287;-60
2023/05/01 07:22:32;;;;;;;1.93;1.80;;;;;;;;;;5059849;28;20218;-60
2023/05/01 07:25:00;;;;;;;2.10;2.00;;;;;;;;;;5061703;28;20238;-60
2023/05/01 07:27:27;;;;;;;1.80;1.70;;;;;;;;;;5056965;28;20200;-59
2023/05/01 07:29:56;;;;;;;2.17;1.87;;;;;;;;;;5051751;28;20261;-60
2023/05/01 07:32:23;;;;;;;2.17;1.90;;;;;;;;;;5050596;28;20235;-59
2023/05/01 07:34:50;;;;;;;2.27;2.17;;;;;;;;;;5050293;28;20212;-60
2023/05/01 07:37:19;;;;;;;1.90;1.80;;;;;;;;;;5052214;28;20207;-60
2023/05/01 07:39:46;;;;;;;1.90;1.80;;;;;;;;;;5053425;28;20233;-60
2023/05/01 07:42:13;;;;;;;2.57;1.93;;;;;;;;;;5052575;28;20239;-60
2023/05/01 07:44:40;;;;;;;1.83;1.73;;;;;;;;;;5065373;28;20951;-60
2023/05/01 07:47:07;;;;;;;2.00;1.80;;;;;;;;;;5066609;28;20207;-60
2023/05/01 07:49:37;;;;;;;3.27;1.30;;;;;;;;;;5058400;28;20219;-60
2023/05/01 07:52:06;;;;;;;2.53;1.70;;;;;;;;;;5060620;28;20221;-60
2023/05/01 07:54:34;;;;;;;4.50;1.80;;;;;;;;;;5062727;28;20686;-59
2023/05/01 07:57:02;;;;;;;1.93;1.83;;;;;;;;;;5067618;28;20294;-60
2023/05/01 07:59:29;;;;;;;4.00;1.80;;;;;;;;;;5069203;28;20213;-60
2023/05/01 08:01:56;;;;;;;2.53;2.03;;;;;;;;;;5050705;28;20199;-60
2023/05/01 08:04:24;;;;;;;1.97;1.83;;;;;;;;;;5061382;28;20238;-60
2023/05/01 08:06:51;;;;;;;4.22;2.03;;;;;;;;;;5052940;28;20204;-66
2023/05/01 08:09:18;;;;;;;2.20;2.10;;;;;;;;;;5060289;28;20214;-60
2023/05/01 08:11:46;;;;;;;2.40;1.77;;;;;;;;;;5052464;28;20237;-60
2023/05/01 08:14:14;;;;;;;2.25;2.13;;;;;;;;;;5049636;28;20254;-60
2023/05/01 08:16:41;;;;;;;1.52;1.52;;;;;;;;;;5066243;28;20257;-59
2023/05/01 08:19:08;;;;;;;1.83;1.73;;;;;;;;;;5069562;28;20207;-61
2023/05/01 08:21:35;;;;;;;5.88;2.60;;;;;;;;;;5053348;28;20224;-61
2023/05/01 08:24:02;;;;;;;2.00;1.90;;;;;;;;;;5050938;28;20265;-59
2023/05/01 08:26:29;;;;;;;1.92;1.88;;;;;;;;;;5053818;28;20287;-59
2023/05/01 08:28:57;;;;;;;1.70;1.60;;;;;;;;;;5057905;28;20244;-60
2023/05/01 08:31:25;;;;;;;2.15;2.05;;;;;;;;;;5062528;28;20214;-61
2023/05/01 08:33:52;;;;;;;2.25;2.08;;;;;;;;;;5051673;28;20714;-60
2023/05/01 08:36:19;;;;;;;2.50;1.85;;;;;;;;;;5050433;28;20208;-60
2023/05/01 08:38:46;;;;;;;2.33;1.88;;;;;;;;;;5056318;28;20218;-59
2023/05/01 08:41:16;;;;;;;1.83;1.73;;;;;;;;;;5057462;28;20293;-60
2023/05/01 08:43:43;;;;;;;4.38;2.25;;;;;;;;;;5063083;28;20678;-60
2023/05/01 08:46:13;;;;;;;1.95;1.85;;;;;;;;;;5058858;28;20264;-59
2023/05/01 08:48:41;;;;;;;2.80;2.55;;;;;;;;;;5050732;28;20298;-59
2023/05/01 08:51:10;;;;;;;2.10;1.88;;;;;;;;;;5055328;28;20585;-60
2023/05/01 08:53:37;;;;;;;1.75;1.75;;;;;;;;;;5065314;28;20274;-60
2023/05/01 08:56:07;;;;;;;2.75;1.85;;;;;;;;;;5057790;28;20212;-60
2023/05/01 08:58:36;;;;;;;1.80;1.70;;;;;;;;;;5065797;28;20206;-60
2023/05/01 09:01:03;;;;;;;3.80;2.47;;;;;;;;;;5055089;28;20269;-60
2023/05/01 09:03:33;;;;;;;2.95;2.63;;;;;;;;;;5061670;28;20207;-60
2023/05/01 09:06:01;;;;;;;2.22;2.03;;;;;;;;;;5057285;28;20234;-60
2023/05/01 09:08:28;;;;;;;5.40;2.50;;;;;;;;;;5051584;28;20294;-60
2023/05/01 09:11:00;;;;;;;3.90;1.75;;;;;;;;;;5061812;28;20210;-59
2023/05/01 09:13:27;;;;;;;1.92;1.83;;;;;;;;;;5058166;28;20330;-59
2023/05/01 09:15:54;;;;;;;1.80;1.70;;;;;;;;;;5045263;28;20566;-60
2023/05/01 09:18:22;;;;;;;1.77;1.67;;;;;;;;;;5058511;28;20354;-60
2023/05/01 09:20:50;;;;;;;2.28;2.10;;;;;;;;;;5066879;28;20728;-60
2023/05/01 09:23:19;;;;;;;3.40;1.38;;;;;;;;;;5063364;28;20223;-60
2023/05/01 09:25:46;;;;;;;1.85;1.67;;;;;;;;;;5066000;28;20257;-60
2023/05/01 09:28:13;;;;;;;1.70;1.70;;;;;;;;;;5058238;28;20598;-60
2023/05/01 09:30:40;;;;;;;2.10;2.00;;;;;;;;;;5052917;28;20855;-60
2023/05/01 09:33:08;;;;;;;1.90;1.80;;;;;;;;;;5063503;28;20256;-60
2023/05/01 09:35:50;;;;;;;1.70;1.60;;;;;;;;;;5062529;28;20202;-60
2023/05/01 09:38:20;;;;;;;2.45;2.35;;;;;;;;;;5053785;28;20207;-61
2023/05/01 09:40:47;;;;;;;2.30;2.10;;;;;;;;;;5053987;28;20207;-60
2023/05/01 09:43:14;;;;;;;1.92;1.83;;;;;;;;;;5063207;28;20235;-60
2023/05/01 09:45:43;;;;;;;2.45;2.05;;;;;;;;;;5051365;28;20278;-60
2023/05/01 09:48:10;;;;;;;4.65;3.85;;;;;;;;;;5060677;28;20593;-59
2023/05/01 09:50:40;;;;;;;2.55;1.88;;;;;;;;;;5061949;28;20293;-59
2023/05/01 09:53:08;;;;;;;2.08;1.67;;;;;;;;;;5065427;28;20223;-59
2023/05/01 09:55:36;;;;;;;2.35;2.15;;;;;;;;;;5057635;28;20302;-60
2023/05/01 09:58:03;;;;;;;1.70;1.60;;;;;;;;;;5049956;28;20210;-59
2023/05/01 10:00:30;;;;;;;1.90;1.75;;;;;;;;;;5055153;28;20318;-60
2023/05/01 10:02:58;;;;;;;1.75;1.40;;;;;;;;;;5059474;28;20207;-60
2023/05/01 10:05:26;;;;;;;1.75;1.65;;;;;;;;;;5058264;28;20919;-60
2023/05/01 10:07:58;;;;;;;2.10;2.00;;;;;;;;;;5056988;28;20312;-59
2023/05/01 10:10:25;;;;;;;5.90;1.85;;;;;;;;;;5065633;28;20219;-62
2023/05/01 10:12:54;;;;;;;1.60;1.60;;;;;;;;;;5064257;28;20230;-60
2023/05/01 10:15:21;;;;;;;1.85;1.83;;;;;;;;;;5054206;28;20211;-60
2023/05/01 10:17:51;;;;;;;1.85;1.85;;;;;;;;;;5052800;28;20214;-62
2023/05/01 10:20:18;;;;;;;2.45;2.28;;;;;;;;;;5056501;28;20248;-59
2023/05/01 10:22:46;;;;;;;1.88;1.77;;;;;;;;;;5061332;28;20223;-60
2023/05/01 10:25:14;;;;;;;2.13;2.05;;;;;;;;;;5065434;28;20292;-60
2023/05/01 10:27:42;;;;;;;2.05;1.95;;;;;;;;;;5047787;28;20324;-61
2023/05/01 10:30:11;;;;;;;1.83;1.83;;;;;;;;;;5049194;28;20226;-61
2023/05/01 10:32:39;;;;;;;2.10;1.90;;;;;;;;;;5047410;28;20697;-61
2023/05/01 10:35:09;;;;;;;1.98;1.85;;;;;;;;;;5047283;28;20277;-61
2023/05/01 10:37:39;;;;;;;2.03;1.92;;;;;;;;;;5047894;28;20292;-60
2023/05/01 10:40:27;;;;;;;2.78;1.90;;;;;;;;;;5052811;28;20219;-60
2023/05/01 10:43:14;;;;;;;2.47;2.05;;;;;;;;;;5037913;28;20230;-60
2023/05/01 10:45:43;;;;;;;1.70;1.70;;;;;;;;;;5046583;28;20345;-60
2023/05/01 10:48:10;;;;;;;2.00;1.90;;;;;;;;;;5044574;28;20214;-60
2023/05/01 10:50:52;;;;;;;1.92;1.88;;;;;;;;;;5048557;28;20345;-60
2023/05/01 10:53:23;;;;;;;2.22;2.13;;;;;;;;;;5045408;28;20219;-60
2023/05/01 10:55:51;;;;;;;1.80;1.80;;;;;;;;;;5045585;28;20219;-61
2023/05/01 10:58:37;;;;;;;1.35;1.35;;;;;;;;;;5047981;28;20204;-60
2023/05/01 11:01:22;;;;;;;1.92;1.83;;;;;;;;;;5048118;28;20302;-60
2023/05/01 11:03:51;;;;;;;2.03;1.92;;;;;;;;;;5050174;28;20207;-59
2023/05/01 11:06:18;;;;;;;1.90;1.80;;;;;;;;;;5050932;28;20207;-59
2023/05/01 11:08:46;;;;;;;1.63;1.60;;;;;;;;;;5050284;28;20461;-60
2023/05/01 11:11:31;;;;;;;1.70;1.70;;;;;;;;;;5067086;28;20259;-60
2023/05/01 11:13:59;;;;;;;1.83;1.75;;;;;;;;;;5066257;28;20222;-60
2023/05/01 11:16:42;;;;;;;2.05;1.95;;;;;;;;;;5053675;28;20381;-60
2023/05/01 11:19:11;;;;;;;1.83;1.73;;;;;;;;;;5062473;28;20416;-61
2023/05/01 11:21:40;;;;;;;2.40;2.20;;;;;;;;;;5060109;28;20670;-61
2023/05/01 11:24:08;;;;;;;3.33;2.38;;;;;;;;;;5062553;28;20754;-61
2023/05/01 11:26:38;;;;;;;2.00;1.77;;;;;;;;;;5061805;28;20643;-60
2023/05/01 11:29:06;;;;;;;1.70;1.58;;;;;;;;;;5047501;28;20307;-61
2023/05/01 11:31:33;;;;;;;1.80;1.80;;;;;;;;;;5045729;28;20733;-61
2023/05/01 11:34:01;;;;;;;1.77;1.77;;;;;;;;;;5065670;28;20226;-61
2023/05/01 11:36:30;;;;;;;2.20;2.10;;;;;;;;;;5056269;28;20277;-61
2023/05/01 11:39:00;;;;;;;1.55;1.55;;;;;;;;;;5066685;28;20306;-62
2023/05/01 11:41:27;;;;;;;1.83;1.73;;;;;;;;;;5064995;28;20239;-60
2023/05/01 11:43:55;;;;;;;3.25;2.00;;;;;;;;;;5045483;28;20202;-60
2023/05/01 11:46:26;;;;;;;4.00;2.50;;;;;;;;;;5049393;28;20208;-59
2023/05/01 11:49:09;;;;;;;2.03;1.67;;;;;;;;;;5049477;28;20214;-59
2023/05/01 11:51:37;;;;;;;1.95;1.85;;;;;;;;;;5066752;28;20628;-59
2023/05/01 11:54:05;;;;;;;2.17;2.08;;;;;;;;;;5063205;28;20232;-59
2023/05/01 11:56:33;;;;;;;1.70;1.70;;;;;;;;;;5049234;28;20341;-59
2023/05/01 11:59:01;;;;;;;1.98;1.88;;;;;;;;;;5049207;28;20212;-59
2023/05/01 12:01:34;;;;;;;2.08;1.98;;;;;;;;;;5047527;28;20212;-59
2023/05/01 12:04:02;;;;;;;1.77;1.67;;;;;;;;;;5049068;28;20208;-59
2023/05/01 12:06:39;;;;;;;1.73;1.73;;;;;;;;;;5048754;28;20302;-59
2023/05/01 12:09:07;;;;;;;1.95;1.80;;;;;;;;;;5048778;28;20218;-60
2023/05/01 12:11:35;;;;;;;1.58;1.58;;;;;;;;;;5066933;28;20297;-59
2023/05/01 12:14:02;;;;;;;2.08;1.88;;;;;;;;;;5068537;28;20226;-60
2023/05/01 12:16:30;;;;;;;1.70;1.65;;;;;;;;;;5058870;28;20312;-59
2023/05/01 12:18:57;;;;;;;2.13;2.03;;;;;;;;;;5049207;28;20212;-58
2023/05/01 12:21:25;;;;;;;2.17;1.92;;;;;;;;;;5057162;28;20219;-59
2023/05/01 12:23:54;;;;;;;40.97;15.23;;;;;;;;;;5065499;28;20326;-59
2023/05/01 12:26:22;;;;;;;1.70;1.70;;;;;;;;;;5068277;28;20203;-59
2023/05/01 12:28:56;;;;;;;1.90;1.90;;;;;;;;;;5066732;28;20280;-60
2023/05/01 12:31:23;;;;;;;1.80;1.80;;;;;;;;;;5057777;28;20298;-59
2023/05/01 12:33:54;;;;;;;2.30;2.17;;;;;;;;;;5068777;28;20242;-58
2023/05/01 12:36:24;;;;;;;2.13;1.63;;;;;;;;;;5051350;28;20294;-59
2023/05/01 12:39:05;;;;;;;2.10;2.00;;;;;;;;;;5062182;28;20211;-59
2023/05/01 12:41:33;;;;;;;2.13;2.05;;;;;;;;;;5067911;28;20250;-59
2023/05/01 12:44:02;;;;;;;1.80;1.70;;;;;;;;;;5068479;28;20607;-59
2023/05/01 12:46:29;;;;;;;2.30;2.15;;;;;;;;;;5058116;28;20215;-58
2023/05/01 12:48:57;;;;;;;2.85;2.42;;;;;;;;;;5052584;28;20206;-58
2023/05/01 12:51:26;;;;;;;4.40;2.40;;;;;;;;;;5064968;28;20211;-59
2023/05/01 12:53:56;;;;;;;2.20;2.10;;;;;;;;;;5053004;28;20219;-59
2023/05/01 12:56:25;;;;;;;2.22;2.08;;;;;;;;;;5065312;28;20310;-59
2023/05/01 12:58:54;;;;;;;2.40;2.30;;;;;;;;;;5067851;28;20680;-58
2023/05/01 13:01:26;;;;;;;3.17;2.40;;;;;;;;;;5063400;28;20294;-59
2023/05/01 13:03:55;;;;;;;2.42;2.33;;;;;;;;;;5052627;28;20257;-60
2023/05/01 13:06:22;;;;;;;2.17;2.05;;;;;;;;;;5051151;28;21645;-60
2023/05/01 13:08:50;;;;;;;2.03;1.92;;;;;;;;;;5066102;28;20230;-58
2023/05/01 13:11:17;;;;;;;1.98;1.88;;;;;;;;;;5065496;28;20233;-57
2023/05/01 13:13:46;;;;;;;2.00;1.90;;;;;;;;;;5067167;28;20227;-58
2023/05/01 13:16:14;;;;;;;2.15;2.05;;;;;;;;;;5063719;28;20222;-58
2023/05/01 13:18:45;;;;;;;1.73;1.73;;;;;;;;;;5058453;28;20299;-58
2023/05/01 13:21:14;;;;;;;1.92;1.85;;;;;;;;;;5046185;28;20701;-58
2023/05/01 13:23:42;;;;;;;1.90;1.80;;;;;;;;;;5061580;28;20230;-58
2023/05/01 13:26:10;;;;;;;2.05;1.85;;;;;;;;;;5067072;28;20234;-58
2023/05/01 13:28:43;;;;;;;2.42;1.60;;;;;;;;;;5062940;28;20211;-58
2023/05/01 13:31:13;;;;;;;1.63;1.63;;;;;;;;;;5047459;28;20298;-58
2023/05/01 13:33:41;;;;;;;2.03;1.92;;;;;;;;;;5052517;28;20971;-58
2023/05/01 13:36:09;;;;;;;1.35;1.35;;;;;;;;;;5067038;28;20321;-58
2023/05/01 13:38:42;;;;;;;1.75;1.65;;;;;;;;;;5055771;28;20211;-58
2023/05/01 13:41:21;;;;;;;2.10;2.00;;;;;;;;;;5133760;27;20283;-60
2023/05/01 13:43:48;;;;;;;2.50;2.30;;;;;;;;;;5105788;28;20810;-57
2023/05/01 13:46:17;;;;;;;1.60;1.60;;;;;;;;;;5088668;28;20213;-58
2023/05/01 13:48:44;;;;;;;1.90;1.77;;;;;;;;;;5103338;28;20209;-57
2023/05/01 13:51:12;;;;;;;3.15;2.88;;;;;;;;;;5102283;28;20204;-58
2023/05/01 13:53:40;;;;;;;2.33;2.22;;;;;;;;;;5098723;28;20206;-60
2023/05/01 13:56:07;;;;;;;52.97;19.15;;;;;;;;;;5083840;28;20213;-57
2023/05/01 13:58:36;;;;;;;1.55;1.45;;;;;;;;;;5101424;28;20206;-58
2023/05/01 14:01:03;;;;;;;2.40;2.30;;;;;;;;;;5098839;28;20692;-59
2023/05/01 14:03:32;;;;;;;2.15;2.05;;;;;;;;;;5101038;28;20212;-58
2023/05/01 14:05:59;;;;;;;1.85;1.77;;;;;;;;;;5085235;28;20198;-59
2023/05/01 14:08:29;;;;;;;1.63;1.63;;;;;;;;;;5095896;28;20213;-58
2023/05/01 14:10:56;;;;;;;1.73;1.73;;;;;;;;;;5098368;28;20213;-61
2023/05/01 14:13:24;;;;;;;1.90;1.80;;;;;;;;;;5108018;28;20206;-57
2023/05/01 14:15:52;;;;;;;1.92;1.83;;;;;;;;;;5107951;28;20631;-58
2023/05/01 14:18:21;;;;;;;1.63;1.63;;;;;;;;;;5096381;28;20209;-60
2023/05/01 14:20:49;;;;;;;1.58;1.50;;;;;;;;;;5110475;28;20260;-60
2023/05/01 14:23:19;;;;;;;1.80;1.70;;;;;;;;;;5098392;28;20728;-59
2023/05/01 14:25:46;;;;;;;1.50;1.50;;;;;;;;;;5098141;28;20212;-60
2023/05/01 14:28:13;;;;;;;1.70;1.70;;;;;;;;;;5082970;28;20285;-60
2023/05/01 14:30:41;;;;;;;1.42;1.42;;;;;;;;;;5091117;28;20198;-59
2023/05/01 14:33:10;;;;;;;1.88;1.77;;;;;;;;;;5083425;28;20203;-60
2023/05/01 14:35:38;;;;;;;1.80;1.70;;;;;;;;;;5083225;28;20265;-62
2023/05/01 14:38:08;;;;;;;3.17;1.88;;;;;;;;;;5083152;28;20233;-59
2023/05/01 14:40:35;;;;;;;1.83;1.83;;;;;;;;;;5082537;28;20250;-62
2023/05/01 14:43:02;;;;;;;1.90;1.80;;;;;;;;;;5088769;28;20198;-60
2023/05/01 14:45:30;;;;;;;2.15;2.05;;;;;;;;;;5092114;28;20206;-59
2023/05/01 14:47:58;;;;;;;1.92;1.92;;;;;;;;;;5088186;28;20213;-59
2023/05/01 14:50:26;;;;;;;1.60;1.50;;;;;;;;;;5089913;28;20225;-59